createdAt,value
2022-09-14T09:19:28.664Z,94092.59
2022-09-14T09:27:51.465Z,94068.38
2022-09-14T09:30:19.249Z,94063.81
2022-09-14T09:32:46.473Z,94067.34
2022-09-14T09:45:00.703Z,94058.66
2022-09-14T09:50:25.759Z,94052.06
2022-09-14T09:53:15.272Z,94045.44
2022-09-14T10:01:22.802Z,94039.00
2022-09-14T10:04:03.981Z,94055.22
2022-09-14T10:07:03.105Z,94046.25
2022-09-14T10:12:51.026Z,94036.41
2022-09-14T10:24:21.309Z,94015.56
2022-09-14T10:26:52.702Z,94022.47
2022-09-14T10:29:43.381Z,94010.41
2022-09-14T10:35:08.827Z,94004.09
2022-09-14T10:44:07.437Z,93986.69
2022-09-14T10:47:06.414Z,93989.44
2022-09-14T10:49:52.307Z,93977.09
2022-09-14T11:21:19.113Z,93945.69
2022-09-14T11:27:02.775Z,93945.78
2022-09-14T12:05:34.316Z,93909.41
2022-09-14T12:40:10.085Z,93923.50
2022-09-14T12:52:26.718Z,93931.94
2022-09-14T15:27:49.452Z,93988.50
2022-09-14T15:36:53.916Z,94012.25
2022-09-14T15:39:22.340Z,94007.78
2022-09-14T16:54:15.314Z,93974.91
2022-09-14T16:56:42.010Z,93965.69
2022-09-14T16:59:09.746Z,93966.03
2022-09-14T17:01:40.888Z,93975.31
2022-09-14T17:04:09.861Z,93988.69
2022-09-14T17:06:38.832Z,94011.72
2022-09-14T17:09:07.676Z,94013.56
2022-09-14T17:11:37.272Z,94004.69
2022-09-14T17:14:04.911Z,93976.22
2022-09-14T17:16:32.038Z,93961.06
2022-09-14T17:19:00.686Z,93955.56
2022-09-14T17:21:28.295Z,93953.81
2022-09-14T17:23:55.567Z,93963.31
2022-09-14T17:26:23.588Z,93965.16
2022-09-14T17:28:54.621Z,93962.38
2022-09-14T17:31:24.534Z,93973.47
2022-09-14T17:33:53.402Z,93981.56
2022-09-14T17:36:20.677Z,93979.97
2022-09-14T17:38:48.825Z,93974.09
2022-09-14T17:41:19.028Z,93991.78
2022-09-14T17:43:51.977Z,93986.50
2022-09-14T17:46:19.139Z,93984.91
2022-09-14T17:48:45.769Z,93978.75
2022-09-14T17:51:15.807Z,93991.00
2022-09-14T17:53:44.011Z,93992.91
2022-09-14T17:56:13.110Z,93989.44
2022-09-14T17:58:40.353Z,93991.25
2022-09-14T18:01:11.412Z,93993.44
2022-09-14T18:03:40.187Z,94011.22
2022-09-14T18:06:09.870Z,94029.78
2022-09-14T18:08:37.193Z,94030.72
2022-09-14T18:11:05.272Z,94033.72
2022-09-14T18:13:32.082Z,94034.50
2022-09-14T18:15:59.463Z,94038.00
2022-09-14T18:18:27.523Z,94042.25
2022-09-14T18:20:54.134Z,94052.53
2022-09-14T18:23:21.079Z,94039.09
2022-09-14T18:25:47.982Z,94024.78
2022-09-14T18:28:15.095Z,94025.13
2022-09-14T18:30:43.617Z,94014.28
2022-09-14T18:33:10.838Z,94016.16
2022-09-14T18:35:39.149Z,93997.03
2022-09-14T18:38:07.194Z,93968.41
2022-09-14T18:40:34.400Z,93961.53
2022-09-14T18:43:01.426Z,93955.53
2022-09-14T18:45:28.686Z,93955.00
2022-09-14T18:47:55.735Z,93942.06
2022-09-14T18:50:23.371Z,93957.63
2022-09-14T18:52:51.968Z,93958.34
2022-09-14T18:55:19.256Z,93966.81
2022-09-14T18:57:47.015Z,93961.09
2022-09-14T19:00:18.352Z,93960.84
2022-09-14T19:02:50.591Z,93963.66
2022-09-14T19:05:17.955Z,93964.34
2022-09-14T19:07:44.763Z,93971.06
2022-09-14T19:10:14.090Z,93982.28
2022-09-14T19:12:41.323Z,93973.47
2022-09-14T19:15:09.003Z,93976.06
2022-09-14T19:17:35.687Z,93986.78
2022-09-14T19:20:05.675Z,93982.56
2022-09-14T19:22:32.595Z,93964.25
2022-09-14T19:24:59.508Z,93965.56
2022-09-14T19:27:27.752Z,93964.59
2022-09-14T19:29:54.332Z,93954.53
2022-09-14T19:32:21.299Z,93951.44
2022-09-14T19:34:49.074Z,93946.72
2022-09-14T19:37:15.806Z,93952.06
2022-09-14T19:39:42.697Z,93945.94
2022-09-14T19:42:09.395Z,93959.81
2022-09-14T19:44:37.337Z,93960.69
2022-09-14T19:47:04.183Z,93948.94
2022-09-14T19:49:31.007Z,93941.41
2022-09-14T19:51:57.990Z,93938.41
2022-09-14T19:54:25.007Z,93944.91
2022-09-14T19:56:51.718Z,93945.56
2022-09-14T19:59:18.373Z,93962.78
2022-09-14T20:01:47.159Z,93961.25
2022-09-14T20:04:15.745Z,93960.34
2022-09-14T20:06:44.757Z,93966.41
2022-09-14T20:09:13.832Z,93968.41
2022-09-14T20:11:41.992Z,93975.34
2022-09-14T20:14:14.965Z,93968.84
2022-09-14T20:16:43.596Z,93966.16
2022-09-14T20:19:13.341Z,93963.47
2022-09-14T20:21:41.437Z,93949.97
2022-09-14T20:24:16.034Z,93955.13
2022-09-14T20:26:44.372Z,93958.03
2022-09-14T20:29:11.278Z,93954.22
2022-09-14T20:31:38.243Z,93951.53
2022-09-14T20:34:05.396Z,93959.59
2022-09-14T20:36:36.130Z,93960.25
2022-09-14T20:39:03.731Z,93960.16
2022-09-14T20:41:33.326Z,93963.94
2022-09-14T20:44:00.572Z,93965.41
2022-09-14T20:46:30.836Z,93966.97
2022-09-14T20:48:58.506Z,93972.34
2022-09-14T20:51:25.995Z,93970.44
2022-09-14T20:53:56.506Z,93964.75
2022-09-14T20:56:25.750Z,93965.19
2022-09-14T20:58:54.622Z,93960.94
2022-09-14T21:01:22.269Z,93967.31
2022-09-14T21:03:50.395Z,93959.25
2022-09-14T21:06:19.143Z,93954.34
2022-09-14T21:08:46.291Z,93958.94
2022-09-14T21:11:15.932Z,93965.31
2022-09-14T21:13:43.394Z,93982.53
2022-09-14T21:16:12.159Z,93961.63
2022-09-14T21:18:39.047Z,93970.22
2022-09-14T21:21:06.492Z,93996.31
2022-09-14T21:23:33.551Z,94052.28
2022-09-14T21:26:00.856Z,94080.66
2022-09-14T21:28:29.118Z,94073.28
2022-09-14T21:31:04.455Z,94073.47
2022-09-14T21:33:32.275Z,94072.47
2022-09-14T21:36:03.008Z,94063.84
2022-09-14T21:38:31.040Z,94065.28
2022-09-14T21:40:57.756Z,94056.81
2022-09-14T21:43:24.904Z,94045.09
2022-09-14T21:45:53.028Z,94043.19
2022-09-14T21:48:19.977Z,94050.34
2022-09-14T21:50:47.466Z,94057.91
2022-09-14T21:53:14.276Z,94044.06
2022-09-14T21:55:41.441Z,94051.31
2022-09-14T21:58:08.353Z,94036.59
2022-09-14T22:00:35.365Z,94033.75
2022-09-14T22:03:03.563Z,94046.84
2022-09-14T22:05:30.176Z,94047.75
2022-09-14T22:07:57.306Z,94041.84
2022-09-14T22:10:23.940Z,94038.94
2022-09-14T22:12:50.624Z,94026.91
2022-09-14T22:15:17.315Z,94031.28
2022-09-14T22:17:43.913Z,94032.50
2022-09-14T22:20:11.846Z,94045.91
2022-09-14T22:22:38.435Z,94042.78
2022-09-14T22:25:06.116Z,94048.47
2022-09-14T22:27:33.169Z,94037.63
2022-09-14T22:30:00.228Z,94044.56
2022-09-14T22:32:26.792Z,94029.72
2022-09-14T22:34:53.372Z,94020.69
2022-09-14T22:37:21.350Z,94037.97
2022-09-14T22:39:48.074Z,94036.31
2022-09-14T22:42:14.704Z,94026.59
2022-09-14T22:44:41.313Z,94027.47
2022-09-14T22:47:07.971Z,94032.00
2022-09-14T22:49:34.585Z,94029.41
2022-09-14T22:52:01.573Z,94035.28
2022-09-14T22:54:29.493Z,94025.13
2022-09-14T22:56:56.356Z,94028.44
2022-09-14T22:59:23.088Z,94031.94
2022-09-14T23:01:49.852Z,94032.03
2022-09-14T23:04:16.492Z,94035.97
2022-09-14T23:06:44.831Z,94046.00
2022-09-14T23:09:13.977Z,94059.97
2022-09-14T23:11:44.414Z,94054.41
2022-09-14T23:14:11.529Z,94073.63
2022-09-14T23:16:38.229Z,94064.16
2022-09-14T23:19:09.236Z,94067.41
2022-09-14T23:21:35.958Z,94076.69
2022-09-14T23:24:04.939Z,94065.19
2022-09-14T23:26:31.913Z,94069.50
2022-09-14T23:29:01.968Z,94069.41
2022-09-14T23:31:29.889Z,94091.03
2022-09-14T23:33:57.894Z,94092.13
2022-09-14T23:36:25.154Z,94090.25
2022-09-14T23:38:52.554Z,94084.88
2022-09-14T23:41:20.815Z,94084.16
2022-09-14T23:43:47.994Z,94079.22
2022-09-14T23:46:17.127Z,94080.19
2022-09-14T23:48:44.485Z,94072.69
2022-09-14T23:51:12.107Z,94065.44
2022-09-14T23:53:39.756Z,94064.31
2022-09-14T23:56:07.137Z,94060.88
2022-09-14T23:58:34.157Z,94060.41
